createdAt,value
2023-02-02T00:03:59.398Z,101965.31
2023-02-02T00:09:02.604Z,101970.28
2023-02-02T00:14:04.160Z,101974.50
2023-02-02T00:19:14.244Z,101980.47
2023-02-02T00:24:20.086Z,101975.03
2023-02-02T00:29:24.248Z,101982.97
2023-02-02T00:34:25.843Z,101989.03
2023-02-02T00:39:27.462Z,101981.50
2023-02-02T00:44:47.230Z,101990.16
2023-02-02T00:49:48.743Z,101985.50
2023-02-02T00:54:50.281Z,101990.69
2023-02-02T00:59:51.799Z,101982.34
2023-02-02T01:04:53.498Z,101982.97
2023-02-02T01:09:55.072Z,101980.91
2023-02-02T01:14:56.758Z,101972.44
2023-02-02T01:19:58.386Z,101978.19
2023-02-02T01:25:00.311Z,101979.16
2023-02-02T01:30:01.782Z,101980.00
2023-02-02T01:35:03.347Z,101985.22
2023-02-02T01:40:05.529Z,101991.28
2023-02-02T01:45:36.845Z,101980.56
2023-02-02T01:50:38.454Z,101981.44
2023-02-02T01:55:41.463Z,101987.38
2023-02-02T02:00:46.634Z,101968.94
2023-02-02T02:05:54.163Z,101975.00
2023-02-02T02:10:56.198Z,101969.25
2023-02-02T02:16:20.398Z,101964.78
2023-02-02T02:22:04.090Z,101969.31
2023-02-02T02:27:39.429Z,101976.50
2023-02-02T02:33:03.015Z,101979.31
2023-02-02T02:38:08.521Z,101982.91
2023-02-02T02:43:18.573Z,101987.59
2023-02-02T02:48:20.057Z,101996.06
2023-02-02T02:53:23.703Z,101989.75
2023-02-02T02:58:28.092Z,101999.03
2023-02-02T03:03:37.325Z,101997.63
2023-02-02T03:09:07.501Z,101987.97
2023-02-02T03:14:09.813Z,101987.44
2023-02-02T03:19:11.323Z,101978.00
2023-02-02T03:24:12.845Z,101978.88
2023-02-02T03:29:14.656Z,101975.06
2023-02-02T03:34:16.203Z,101972.97
2023-02-02T03:39:17.756Z,101965.91
2023-02-02T03:44:19.228Z,101958.72
2023-02-02T03:49:21.312Z,101959.38
2023-02-02T03:54:23.005Z,101962.69
2023-02-02T03:59:24.520Z,101967.69
2023-02-02T04:04:25.990Z,101972.53
2023-02-02T04:09:28.046Z,101974.03
2023-02-02T04:14:29.630Z,101966.88
2023-02-02T04:19:31.150Z,101968.81
2023-02-02T04:24:32.669Z,101965.84
2023-02-02T04:29:34.229Z,101971.53
2023-02-02T04:34:35.760Z,101977.09
2023-02-02T04:39:37.596Z,101971.13
2023-02-02T04:44:39.811Z,101975.06
2023-02-02T04:49:41.359Z,101980.13
2023-02-02T04:54:42.869Z,101989.78
2023-02-02T04:59:44.480Z,101995.00
2023-02-02T05:04:46.769Z,101988.69
2023-02-02T05:09:48.333Z,101991.28
2023-02-02T05:14:49.912Z,101992.88
2023-02-02T05:19:51.374Z,102004.50
2023-02-02T05:24:52.832Z,101996.72
2023-02-02T05:29:54.315Z,102004.72
2023-02-02T05:34:55.822Z,102007.88
2023-02-02T05:39:57.392Z,101998.59
2023-02-02T05:44:58.879Z,102010.56
2023-02-02T05:50:02.449Z,102006.75
2023-02-02T05:55:04.567Z,102003.19
2023-02-02T06:00:07.260Z,101996.63
2023-02-02T06:05:08.997Z,102005.19
2023-02-02T06:10:10.988Z,102012.56
2023-02-02T06:15:12.531Z,102029.19
2023-02-02T06:20:14.316Z,102028.13
2023-02-02T06:25:15.967Z,102024.41
2023-02-02T06:30:17.652Z,102029.50
2023-02-02T06:35:19.263Z,102036.78
2023-02-02T06:40:20.979Z,102044.19
2023-02-02T06:45:22.738Z,102039.72
2023-02-02T06:50:24.386Z,102039.09
2023-02-02T06:55:26.236Z,102046.38
2023-02-02T07:00:29.907Z,102053.41
2023-02-02T07:05:31.772Z,102058.72
2023-02-02T07:11:14.113Z,102063.19
2023-02-02T07:15:57.037Z,102076.75
2023-02-02T07:21:00.383Z,102082.69
2023-02-02T07:26:02.757Z,102093.56
2023-02-02T07:31:25.695Z,102085.28
2023-02-02T07:36:27.456Z,102092.03
2023-02-02T07:41:28.995Z,102087.94
2023-02-02T07:46:31.278Z,102095.50
2023-02-02T07:51:32.951Z,102102.25
2023-02-02T07:56:34.793Z,102100.06
2023-02-02T08:01:36.477Z,102109.25
2023-02-02T08:06:39.790Z,102114.59
2023-02-02T08:11:41.421Z,102119.38
2023-02-02T08:16:42.957Z,102128.16
2023-02-02T08:21:44.575Z,102138.91
2023-02-02T08:26:46.151Z,102127.28
2023-02-02T08:31:47.755Z,102133.06
2023-02-02T08:36:49.346Z,102147.16
2023-02-02T08:41:50.882Z,102151.13
2023-02-02T08:46:52.402Z,102150.91
2023-02-02T08:51:53.895Z,102160.97
2023-02-02T08:56:56.388Z,102173.69
2023-02-02T09:01:57.969Z,102184.44
2023-02-02T09:06:59.497Z,102181.25
2023-02-02T09:12:01.030Z,102192.75
2023-02-02T09:17:02.550Z,102203.88
2023-02-02T09:22:04.133Z,102201.03
2023-02-02T09:27:05.672Z,102203.31
2023-02-02T09:32:07.715Z,102208.41
2023-02-02T09:37:09.350Z,102212.81
2023-02-02T09:42:44.205Z,102214.72
2023-02-02T09:48:08.829Z,102222.06
2023-02-02T09:53:36.488Z,102224.97
2023-02-02T09:59:13.779Z,102236.09
2023-02-02T10:04:39.130Z,102243.16
2023-02-02T10:10:13.172Z,102249.81
2023-02-02T10:15:28.287Z,102244.56
2023-02-02T10:20:58.872Z,102241.69
2023-02-02T10:26:23.181Z,102257.09
2023-02-02T10:31:44.115Z,102264.25
2023-02-02T10:36:55.636Z,102255.13
2023-02-02T10:42:06.776Z,102256.28
2023-02-02T10:47:13.030Z,102249.34
2023-02-02T10:52:22.583Z,102253.03
2023-02-02T10:57:46.349Z,102267.28
2023-02-02T11:02:48.929Z,102268.00
2023-02-02T11:07:53.709Z,102262.41
2023-02-02T11:12:57.454Z,102259.69
2023-02-02T11:18:33.451Z,102268.00
2023-02-02T11:23:35.103Z,102274.22
2023-02-02T11:28:37.348Z,102269.88
2023-02-02T11:33:38.916Z,102266.06
2023-02-02T11:38:40.671Z,102263.22
2023-02-02T11:43:53.409Z,102264.72
2023-02-02T11:49:16.649Z,102263.72
2023-02-02T11:54:27.010Z,102257.81
2023-02-02T11:59:31.607Z,102264.25
2023-02-02T12:04:33.156Z,102260.66
2023-02-02T12:09:34.710Z,102255.34
2023-02-02T12:14:45.331Z,102246.94
2023-02-02T12:20:11.264Z,102245.06
2023-02-02T12:25:15.649Z,102248.44
2023-02-02T12:30:45.977Z,102250.94
2023-02-02T12:36:21.899Z,102250.44
2023-02-02T12:41:35.215Z,102243.41
2023-02-02T12:47:01.598Z,102246.94
2023-02-02T12:52:06.095Z,102246.94
2023-02-02T12:57:36.424Z,102261.28
2023-02-02T13:03:09.251Z,102251.03
2023-02-02T13:08:14.815Z,102256.09
2023-02-02T13:13:25.226Z,102258.06
2023-02-02T13:18:32.572Z,102255.84
2023-02-02T13:23:43.255Z,102250.31
2023-02-02T13:29:06.260Z,102247.03
2023-02-02T13:34:19.145Z,102243.84
2023-02-02T13:39:34.689Z,102231.19
2023-02-02T13:44:40.553Z,102249.88
2023-02-02T13:49:45.914Z,102244.06
2023-02-02T13:55:17.999Z,102246.94
2023-02-02T14:00:23.386Z,102241.91
2023-02-02T14:05:35.630Z,102251.00
2023-02-02T14:10:42.850Z,102248.53
2023-02-02T14:15:44.716Z,102246.69
2023-02-02T14:20:49.718Z,102252.69
2023-02-02T14:26:07.093Z,102254.50
2023-02-02T14:31:29.330Z,102262.75
2023-02-02T14:36:33.097Z,102260.16
2023-02-02T14:42:00.844Z,102260.63
2023-02-02T14:47:03.066Z,102261.84
2023-02-02T14:52:05.362Z,102263.91
2023-02-02T14:57:20.875Z,102270.34
2023-02-02T15:02:35.718Z,102277.16
2023-02-02T15:07:51.471Z,102274.56
2023-02-02T15:13:05.551Z,102282.19
2023-02-02T15:18:15.455Z,102288.63
2023-02-02T15:23:46.703Z,102291.41
2023-02-02T15:28:54.663Z,102289.06
2023-02-02T15:34:01.143Z,102280.91
2023-02-02T15:39:10.106Z,102287.47
2023-02-02T15:44:41.048Z,102289.50
2023-02-02T15:49:43.453Z,102309.66
2023-02-02T15:54:55.741Z,102309.31
2023-02-02T15:59:58.518Z,102308.69
2023-02-02T16:04:59.987Z,102298.50
2023-02-02T16:10:07.328Z,102311.13
2023-02-02T16:15:23.468Z,102316.94
2023-02-02T16:20:26.098Z,102316.50
2023-02-02T16:25:31.186Z,102327.47
2023-02-02T16:30:36.954Z,102329.47
2023-02-02T16:35:40.765Z,102334.47
2023-02-02T16:40:42.510Z,102332.66
2023-02-02T16:45:50.991Z,102336.97
2023-02-02T16:51:15.405Z,102346.97
2023-02-02T16:56:32.926Z,102345.00
2023-02-02T17:01:41.186Z,102344.03
2023-02-02T17:06:52.500Z,102360.00
2023-02-02T17:11:57.993Z,102346.63
2023-02-02T17:16:59.832Z,102348.25
2023-02-02T17:22:05.202Z,102346.13
2023-02-02T17:27:15.405Z,102346.50
2023-02-02T17:32:16.886Z,102349.66
2023-02-02T17:37:18.454Z,102346.59
2023-02-02T17:42:28.023Z,102346.47
2023-02-02T17:47:29.500Z,102346.41
2023-02-02T17:52:31.133Z,102349.56
2023-02-02T17:57:32.612Z,102346.97
2023-02-02T18:02:35.044Z,102338.44
2023-02-02T18:07:38.074Z,102327.91
2023-02-02T18:12:39.615Z,102317.53
2023-02-02T18:17:42.379Z,102330.09
2023-02-02T18:22:44.271Z,102323.06
2023-02-02T18:27:46.705Z,102324.66
2023-02-02T18:32:49.776Z,102320.66
2023-02-02T18:37:51.977Z,102335.75
2023-02-02T18:42:53.484Z,102325.53
2023-02-02T18:47:55.018Z,102321.81
2023-02-02T18:52:56.943Z,102312.28
2023-02-02T18:57:58.552Z,102299.25
2023-02-02T19:03:00.022Z,102297.53
2023-02-02T19:08:03.890Z,102292.59
2023-02-02T19:13:05.297Z,102299.47
2023-02-02T19:18:15.188Z,102295.81
2023-02-02T19:23:24.811Z,102288.16
2023-02-02T19:28:30.969Z,102289.66
2023-02-02T19:33:42.564Z,102295.31
2023-02-02T19:38:45.233Z,102295.97
2023-02-02T19:43:48.684Z,102315.16
2023-02-02T19:48:53.853Z,102330.50
2023-02-02T19:54:00.457Z,102327.66
2023-02-02T19:59:02.080Z,102330.50
2023-02-02T20:04:06.322Z,102339.03
2023-02-02T20:09:15.546Z,102333.38
2023-02-02T20:14:20.005Z,102337.09
2023-02-02T20:19:27.074Z,102333.25
2023-02-02T20:24:40.282Z,102334.75
2023-02-02T20:29:44.373Z,102323.66
2023-02-02T20:34:45.901Z,102338.88
2023-02-02T20:40:04.427Z,102349.88
2023-02-02T20:45:06.722Z,102350.22
2023-02-02T20:50:09.830Z,102341.06
2023-02-02T20:55:11.419Z,102341.59
2023-02-02T21:00:15.977Z,102331.06
2023-02-02T21:05:17.725Z,102329.44
2023-02-02T21:10:19.262Z,102341.00
2023-02-02T21:15:20.808Z,102328.41
2023-02-02T21:20:22.310Z,102336.44
2023-02-02T21:25:23.839Z,102343.84
2023-02-02T21:30:25.711Z,102342.72
2023-02-02T21:35:27.381Z,102345.59
2023-02-02T21:40:30.662Z,102345.69
2023-02-02T21:45:38.534Z,102350.91
2023-02-02T21:50:41.536Z,102344.72
2023-02-02T21:55:45.313Z,102349.16
2023-02-02T22:00:47.057Z,102343.38
2023-02-02T22:05:48.555Z,102327.28
2023-02-02T22:10:50.102Z,102318.47
2023-02-02T22:15:53.074Z,102300.19
2023-02-02T22:20:56.428Z,102275.22
2023-02-02T22:25:59.033Z,102270.25
2023-02-02T22:31:00.904Z,102260.69
2023-02-02T22:36:03.093Z,102244.00
2023-02-02T22:41:06.297Z,102237.53
2023-02-02T22:46:07.955Z,102218.25
2023-02-02T22:51:09.459Z,102225.50
2023-02-02T22:56:11.295Z,102224.00
2023-02-02T23:01:13.673Z,102237.13
2023-02-02T23:06:15.192Z,102231.44
2023-02-02T23:11:16.851Z,102223.66
2023-02-02T23:16:18.323Z,102229.69
2023-02-02T23:21:20.002Z,102234.50
2023-02-02T23:26:22.787Z,102244.50
2023-02-02T23:31:24.415Z,102254.91
2023-02-02T23:36:25.943Z,102249.22
2023-02-02T23:41:27.443Z,102248.13
2023-02-02T23:46:29.076Z,102253.06
2023-02-02T23:51:31.136Z,102253.50
2023-02-02T23:56:32.965Z,102263.50
